Time;durP1;ratioP1;P1;durP2;ratioP2;P2;SDS_P1;SDS_P2;PMS_P1;PMS_P2;Temp;Humidity;BMP_temperature;BMP_pressure;BME280_temperature;BME280_humidity;BME280_pressure;Samples;Min_cycle;Max_cycle;Signal;HPM_P1;HPM_P2
2023/02/14 00:01:09;;;;;;;26.13;14.02;;;;;;;-3.70;100.00;99053.22;5052048;28;20044;-61
2023/02/14 00:03:36;;;;;;;24.27;12.60;;;;;;;-3.49;100.00;99050.75;5058041;28;20537;-61
2023/02/14 00:06:12;;;;;;;23.48;13.20;;;;;;;-3.77;100.00;99047.56;5053611;28;20049;-61
2023/02/14 00:08:42;;;;;;;24.00;12.60;;;;;;;-3.90;100.00;99039.75;5056102;28;21119;-61
2023/02/14 00:11:10;;;;;;;23.38;12.32;;;;;;;-3.85;100.00;99040.22;5056270;28;20064;-60
2023/02/14 00:13:37;;;;;;;26.95;13.40;;;;;;;-3.83;100.00;99050.72;5054336;28;20120;-62
2023/02/14 00:16:04;;;;;;;24.90;12.77;;;;;;;-3.80;100.00;99053.94;5061247;28;20044;-61
2023/02/14 00:21:26;;;;;;;21.52;10.93;;;;;;;-3.86;100.00;99054.44;5052428;28;20044;-63
2023/02/14 00:23:53;;;;;;;23.92;12.98;;;;;;;-3.91;100.00;99048.63;5060575;28;20174;-63
2023/02/14 00:26:19;;;;;;;23.50;12.00;;;;;;;-4.02;100.00;99041.50;5057224;28;20523;-61
2023/02/14 00:28:46;;;;;;;21.88;11.13;;;;;;;-3.92;100.00;99039.88;5062351;28;20037;-60
2023/02/14 00:31:13;;;;;;;21.17;11.45;;;;;;;-3.87;100.00;99042.13;5047023;28;20044;-61
2023/02/14 00:33:39;;;;;;;25.52;12.48;;;;;;;-3.86;100.00;99043.00;5059494;28;20044;-61
2023/02/14 00:36:06;;;;;;;23.48;12.20;;;;;;;-3.95;100.00;99039.22;5060011;28;20048;-61
2023/02/14 00:38:33;;;;;;;22.50;13.13;;;;;;;-4.00;100.00;99033.47;5055550;28;20551;-61
2023/02/14 00:41:00;;;;;;;23.02;11.88;;;;;;;-3.98;100.00;99040.31;5058795;28;20032;-61
2023/02/14 00:43:27;;;;;;;23.77;12.38;;;;;;;-3.90;100.00;99036.25;5054166;28;20037;-61
2023/02/14 00:45:54;;;;;;;21.48;11.50;;;;;;;-3.93;100.00;99035.53;5058484;28;20040;-61
2023/02/14 00:48:20;;;;;;;23.67;11.93;;;;;;;-4.21;100.00;99034.97;5060741;28;20123;-61
2023/02/14 00:50:47;;;;;;;25.70;13.50;;;;;;;-4.08;100.00;99042.00;5061423;28;20045;-61
2023/02/14 00:53:13;;;;;;;25.27;12.48;;;;;;;-4.15;100.00;99046.06;5058938;28;20041;-61
2023/02/14 00:55:45;;;;;;;23.00;13.20;;;;;;;-4.08;100.00;99053.44;5054696;28;20033;-62
2023/02/14 00:58:13;;;;;;;24.80;12.75;;;;;;;-4.01;100.00;99043.22;5048101;28;20079;-61
2023/02/14 01:00:39;;;;;;;23.73;13.77;;;;;;;-4.05;100.00;99044.41;5054527;28;20120;-61
2023/02/14 01:03:06;;;;;;;25.33;12.60;;;;;;;-4.16;100.00;99042.56;5047630;28;20415;-61
2023/02/14 01:05:33;;;;;;;22.63;12.63;;;;;;;-4.02;100.00;99048.63;5048597;28;20068;-60
2023/02/14 01:08:02;;;;;;;28.70;13.07;;;;;;;-4.05;100.00;99042.59;5058836;28;20054;-61
2023/02/14 01:10:29;;;;;;;27.27;13.45;;;;;;;-4.07;100.00;99041.03;5056548;28;20106;-61
2023/02/14 01:12:57;;;;;;;26.70;13.20;;;;;;;-4.07;100.00;99044.53;5047950;28;20045;-61
2023/02/14 01:15:23;;;;;;;26.23;13.73;;;;;;;-4.14;100.00;99045.94;5056846;28;20132;-61
2023/02/14 01:17:50;;;;;;;23.75;13.43;;;;;;;-4.23;100.00;99047.50;5054948;28;20435;-61
2023/02/14 01:20:18;;;;;;;22.48;12.00;;;;;;;-4.19;100.00;99050.75;5056801;28;20053;-61
2023/02/14 01:22:45;;;;;;;21.08;12.55;;;;;;;-4.14;100.00;99043.28;5055668;28;20119;-61
2023/02/14 01:25:29;;;;;;;28.60;13.90;;;;;;;-4.11;100.00;99053.66;5056895;28;20028;-61
2023/02/14 01:27:57;;;;;;;24.08;11.85;;;;;;;-4.03;100.00;99041.66;5052967;28;20064;-60
2023/02/14 01:30:41;;;;;;;25.67;12.70;;;;;;;-4.02;100.00;99045.97;5065814;28;20486;-61
2023/02/14 01:33:08;;;;;;;26.05;12.70;;;;;;;-4.09;100.00;99049.06;5059111;28;20052;-61
2023/02/14 01:35:37;;;;;;;23.63;12.80;;;;;;;-4.35;100.00;99043.94;5056062;28;20044;-60
2023/02/14 01:38:40;;;;;;;19.17;10.85;;;;;;;-4.40;100.00;99046.09;5061592;28;20071;-61
2023/02/14 01:41:07;;;;;;;23.52;12.82;;;;;;;-4.10;100.00;99046.53;5062839;28;20458;-60
2023/02/14 01:43:50;;;;;;;26.20;12.65;;;;;;;-4.03;100.00;99031.06;5065859;28;20041;-61
2023/02/14 01:46:16;;;;;;;28.80;13.05;;;;;;;-4.01;100.00;99034.41;5066054;28;20048;-61
2023/02/14 01:48:43;;;;;;;21.17;12.05;;;;;;;-4.05;100.00;99031.19;5056911;28;20048;-61
2023/02/14 01:51:12;;;;;;;24.50;12.60;;;;;;;-4.06;100.00;99027.69;5052758;28;20099;-61
2023/02/14 01:53:39;;;;;;;24.85;13.05;;;;;;;-4.05;100.00;99021.41;5062431;28;20056;-61
2023/02/14 01:56:11;;;;;;;26.13;12.90;;;;;;;-3.96;100.00;99037.56;5054216;28;20586;-60
2023/02/14 01:58:43;;;;;;;25.58;13.20;;;;;;;-3.94;100.00;99033.81;5061971;28;20143;-61
2023/02/14 02:01:35;;;;;;;28.38;13.02;;;;;;;-4.05;100.00;99041.75;5055152;28;20496;-61
2023/02/14 02:04:09;;;;;;;32.72;15.15;;;;;;;-3.92;100.00;99034.56;5049090;28;20055;-60
2023/02/14 02:06:51;;;;;;;28.23;13.38;;;;;;;-3.79;100.00;99037.09;5058895;28;20523;-61
2023/02/14 02:09:24;;;;;;;29.08;14.50;;;;;;;-3.73;100.00;99043.72;5056481;28;20045;-61
2023/02/14 02:11:50;;;;;;;25.15;13.25;;;;;;;-4.00;100.00;99036.09;5057617;28;20589;-60
2023/02/14 02:14:20;;;;;;;26.85;13.75;;;;;;;-4.03;100.00;99045.13;5057288;28;20083;-61
2023/02/14 02:17:05;;;;;;;29.38;15.57;;;;;;;-4.01;100.00;99048.50;5056795;28;20036;-61
2023/02/14 02:20:09;;;;;;;30.13;13.63;;;;;;;-3.87;100.00;99046.59;5055588;28;20068;-61
2023/02/14 02:23:18;;;;;;;29.65;14.10;;;;;;;-4.11;100.00;99043.06;5050859;28;20048;-61
2023/02/14 02:25:54;;;;;;;26.60;11.93;;;;;;;-4.11;100.00;99047.50;5053621;28;20722;-62
2023/02/14 02:28:32;;;;;;;29.52;14.90;;;;;;;-4.02;100.00;99040.69;5059862;28;20648;-61
2023/02/14 02:31:10;;;;;;;31.02;16.35;;;;;;;-4.09;100.00;99035.03;5055888;28;20132;-61
2023/02/14 02:33:46;;;;;;;26.17;13.77;;;;;;;-4.16;100.00;99037.28;5054365;28;20114;-62
2023/02/14 02:36:43;;;;;;;26.23;13.20;;;;;;;-4.19;100.00;99034.88;5052315;28;20037;-61
2023/02/14 02:39:17;;;;;;;23.40;12.10;;;;;;;-4.18;100.00;99036.53;5058186;28;20033;-61
2023/02/14 02:42:15;;;;;;;24.33;12.55;;;;;;;-4.14;100.00;99030.06;5051875;28;20040;-61
2023/02/14 02:45:13;;;;;;;38.28;15.15;;;;;;;-3.83;100.00;99034.81;5057030;28;20098;-62
2023/02/14 02:47:51;;;;;;;36.45;16.60;;;;;;;-3.87;100.00;99033.38;5054392;28;20049;-60
2023/02/14 02:53:23;;;;;;;23.33;12.15;;;;;;;-4.31;100.00;99028.72;5055687;28;20037;-59
2023/02/14 02:58:46;;;;;;;27.85;13.15;;;;;;;-4.25;100.00;99033.53;5055913;28;20147;-61
2023/02/14 03:01:20;;;;;;;24.33;12.40;;;;;;;-4.17;100.00;99040.88;5054207;28;20045;-61
2023/02/14 03:06:38;;;;;;;21.08;11.02;;;;;;;-4.25;100.00;99030.88;5054491;28;20071;-61
2023/02/14 03:09:26;;;;;;;23.02;13.30;;;;;;;-4.43;100.00;99038.38;5057639;28;20064;-62
2023/02/14 03:12:12;;;;;;;22.48;11.65;;;;;;;-4.51;100.00;99023.09;5053154;28;20557;-61
2023/02/14 03:14:47;;;;;;;20.35;11.88;;;;;;;-4.58;100.00;99022.72;5055081;28;20041;-61
2023/02/14 03:17:31;;;;;;;25.25;13.10;;;;;;;-4.67;100.00;99026.03;5060079;28;20065;-62
2023/02/14 03:20:16;;;;;;;23.63;12.63;;;;;;;-4.67;100.00;99033.97;5060338;28;20051;-61
2023/02/14 03:23:06;;;;;;;23.27;11.85;;;;;;;-4.65;100.00;99034.69;5054579;28;20462;-62
2023/02/14 03:25:51;;;;;;;22.65;11.82;;;;;;;-4.58;100.00;99033.28;5051132;28;20041;-62
2023/02/14 03:28:38;;;;;;;24.38;13.05;;;;;;;-4.66;100.00;99026.88;5051388;28;20670;-61
2023/02/14 03:31:12;;;;;;;28.30;12.00;;;;;;;-4.55;100.00;99034.00;5058155;28;20107;-62
2023/02/14 03:33:55;;;;;;;23.40;11.15;;;;;;;-4.60;100.00;99031.72;5056766;28;20462;-61
2023/02/14 03:36:39;;;;;;;25.67;12.27;;;;;;;-4.46;100.00;99034.16;5049605;28;20067;-61
2023/02/14 03:39:42;;;;;;;23.90;11.23;;;;;;;-4.53;100.00;99038.25;5056695;28;20500;-61
2023/02/14 03:42:21;;;;;;;25.60;12.48;;;;;;;-4.60;100.00;99035.19;5050914;28;20063;-61
2023/02/14 03:44:50;;;;;;;20.38;11.60;;;;;;;-4.54;100.00;99035.72;5055600;28;20536;-61
2023/02/14 03:47:21;;;;;;;27.48;12.77;;;;;;;-4.57;100.00;99037.63;5056062;28;20041;-62
2023/02/14 03:49:54;;;;;;;27.17;12.43;;;;;;;-4.60;100.00;99037.81;5056677;28;20094;-61
2023/02/14 03:52:22;;;;;;;25.00;12.38;;;;;;;-4.67;100.00;99033.97;5059010;28;20537;-62
2023/02/14 03:54:52;;;;;;;27.60;12.60;;;;;;;-4.81;100.00;99036.78;5050095;28;20530;-62
2023/02/14 03:57:28;;;;;;;31.35;13.20;;;;;;;-4.81;100.00;99042.06;5054008;28;20041;-61
2023/02/14 03:59:55;;;;;;;22.92;11.88;;;;;;;-4.91;100.00;99039.25;5055229;28;20106;-62
2023/02/14 04:02:34;;;;;;;26.95;13.50;;;;;;;-4.83;100.00;99037.72;5055291;28;20040;-61
2023/02/14 04:05:06;;;;;;;27.88;13.25;;;;;;;-4.83;100.00;99042.19;5048967;28;20184;-61
2023/02/14 04:07:43;;;;;;;26.52;12.50;;;;;;;-4.87;100.00;99036.25;5053025;28;20048;-62
2023/02/14 04:10:10;;;;;;;28.73;13.02;;;;;;;-4.93;100.00;99039.38;5058807;28;20566;-62
2023/02/14 04:12:36;;;;;;;26.70;13.48;;;;;;;-4.93;100.00;99033.22;5056075;28;20048;-62
2023/02/14 04:15:04;;;;;;;24.45;12.75;;;;;;;-4.77;100.00;99030.31;5063602;28;20041;-62
2023/02/14 04:20:15;;;;;;;24.95;12.95;;;;;;;-4.85;100.00;99036.16;5057836;28;20048;-62
2023/02/14 04:22:42;;;;;;;24.77;12.75;;;;;;;-4.94;100.00;99035.00;5059192;28;20052;-62
2023/02/14 04:25:08;;;;;;;27.75;14.50;;;;;;;-4.93;100.00;99034.09;5056710;28;20389;-61
2023/02/14 04:27:35;;;;;;;32.47;13.75;;;;;;;-5.01;100.00;99033.78;5055882;28;20040;-61
2023/02/14 04:30:02;;;;;;;31.42;14.20;;;;;;;-5.01;100.00;99033.78;5055709;28;20041;-61
2023/02/14 04:32:29;;;;;;;28.90;13.27;;;;;;;-5.03;100.00;99027.75;5056012;28;20041;-62
2023/02/14 04:34:55;;;;;;;24.40;12.32;;;;;;;-4.92;100.00;99021.69;5053075;28;20044;-61
2023/02/14 04:37:22;;;;;;;26.45;13.25;;;;;;;-4.98;100.00;99025.63;5054404;28;20032;-61
2023/02/14 04:39:48;;;;;;;26.25;12.25;;;;;;;-4.93;100.00;99025.31;5063455;28;20047;-62
2023/02/14 04:42:15;;;;;;;25.95;13.20;;;;;;;-4.92;100.00;99011.97;5058424;28;20119;-61
2023/02/14 04:44:41;;;;;;;30.15;14.13;;;;;;;-4.89;100.00;99022.34;5058044;28;20628;-62
2023/02/14 04:47:08;;;;;;;26.05;13.23;;;;;;;-4.88;100.00;99017.88;5055125;28;20085;-62
2023/02/14 04:49:35;;;;;;;28.65;13.88;;;;;;;-4.97;100.00;99017.59;5056829;28;20120;-62
2023/02/14 04:52:02;;;;;;;30.73;14.30;;;;;;;-5.04;100.00;99020.81;5059605;28;20036;-60
2023/02/14 04:54:29;;;;;;;27.60;14.63;;;;;;;-5.02;100.00;99016.25;5055183;28;20037;-61
2023/02/14 04:56:55;;;;;;;23.83;13.80;;;;;;;-5.04;100.00;99019.00;5058898;28;20045;-60
2023/02/14 04:59:22;;;;;;;25.35;13.52;;;;;;;-5.04;100.00;99013.72;5053264;28;20556;-60
2023/02/14 05:01:51;;;;;;;28.40;14.73;;;;;;;-5.06;100.00;99022.72;5059459;28;20040;-62
2023/02/14 05:04:17;;;;;;;24.13;13.73;;;;;;;-5.14;100.00;99018.81;5053489;28;20041;-62
2023/02/14 05:06:44;;;;;;;29.75;13.20;;;;;;;-5.02;100.00;99019.72;5060908;28;20044;-62
2023/02/14 05:09:10;;;;;;;33.35;16.73;;;;;;;-4.41;100.00;99022.41;5059785;28;20041;-61
2023/02/14 05:11:37;;;;;;;26.40;14.85;;;;;;;-4.55;100.00;99010.22;5060261;28;20051;-62
2023/02/14 05:14:04;;;;;;;30.95;15.30;;;;;;;-4.68;100.00;99002.38;5060901;28;20102;-63
2023/02/14 05:16:30;;;;;;;27.73;15.02;;;;;;;-4.94;100.00;99008.59;5059831;28;20051;-60
2023/02/14 05:18:57;;;;;;;23.67;14.13;;;;;;;-5.14;100.00;99002.13;5056707;28;20049;-61
2023/02/14 05:21:23;;;;;;;26.80;13.85;;;;;;;-5.15;100.00;99017.16;5061051;28;20059;-63
2023/02/14 05:23:50;;;;;;;25.40;12.18;;;;;;;-5.09;100.00;99016.69;5061028;28;20048;-62
2023/02/14 05:26:16;;;;;;;29.05;12.82;;;;;;;-4.96;100.00;99018.44;5059233;28;20071;-63
2023/02/14 05:28:43;;;;;;;28.90;14.93;;;;;;;-4.89;100.00;99011.78;5058294;28;20056;-62
2023/02/14 05:31:09;;;;;;;25.65;13.55;;;;;;;-5.12;100.00;99016.91;5060661;28;20044;-60
2023/02/14 05:33:36;;;;;;;29.92;13.68;;;;;;;-5.12;100.00;99021.38;5060136;28;20124;-60
2023/02/14 05:36:03;;;;;;;28.27;13.80;;;;;;;-5.22;100.00;99027.31;5059076;28;21590;-63
2023/02/14 05:38:32;;;;;;;32.33;13.73;;;;;;;-5.21;100.00;99022.84;5064298;28;20065;-63
2023/02/14 05:40:58;;;;;;;27.65;15.07;;;;;;;-5.14;100.00;99026.75;5062623;28;20041;-62
2023/02/14 05:43:25;;;;;;;27.17;13.57;;;;;;;-5.13;100.00;99023.16;5060691;28;20627;-62
2023/02/14 05:45:53;;;;;;;29.65;13.35;;;;;;;-5.14;100.00;99029.38;5066140;28;20090;-63
2023/02/14 05:48:20;;;;;;;30.98;14.65;;;;;;;-5.09;100.00;99026.41;5066059;28;21402;-62
2023/02/14 05:50:46;;;;;;;24.58;13.65;;;;;;;-5.07;100.00;99023.66;5061958;28;20037;-63
2023/02/14 05:53:13;;;;;;;28.92;13.43;;;;;;;-5.13;100.00;99019.66;5062070;28;20060;-62
2023/02/14 05:55:39;;;;;;;26.15;13.38;;;;;;;-5.12;100.00;99027.47;5063933;28;20098;-59
2023/02/14 05:58:06;;;;;;;32.50;13.57;;;;;;;-4.95;100.00;99028.06;5069177;28;20166;-61
2023/02/14 06:00:33;;;;;;;29.35;13.95;;;;;;;-4.93;100.00;99027.94;5058272;28;20040;-63
2023/02/14 06:03:00;;;;;;;25.25;12.98;;;;;;;-4.99;100.00;99031.88;5061600;28;20041;-61
2023/02/14 06:05:26;;;;;;;24.33;13.20;;;;;;;-4.96;100.00;99035.16;5063345;28;20540;-60
2023/02/14 06:07:53;;;;;;;25.23;12.68;;;;;;;-5.02;100.00;99026.84;5057622;28;20064;-61
2023/02/14 06:10:22;;;;;;;28.20;14.27;;;;;;;-5.14;100.00;99026.75;5052106;28;20049;-60
2023/02/14 06:12:50;;;;;;;26.73;13.35;;;;;;;-5.18;100.00;99027.94;5057175;28;20086;-60
2023/02/14 06:15:17;;;;;;;24.75;12.85;;;;;;;-5.14;100.00;99034.69;5063165;28;20068;-60
2023/02/14 06:17:44;;;;;;;30.75;13.55;;;;;;;-5.09;100.00;99035.19;5054434;28;20054;-61
2023/02/14 06:20:11;;;;;;;27.40;12.93;;;;;;;-5.04;100.00;99026.09;5059980;28;20516;-62
2023/02/14 06:22:38;;;;;;;23.75;13.38;;;;;;;-5.02;100.00;99035.56;5058673;28;20052;-60
2023/02/14 06:25:05;;;;;;;25.00;12.95;;;;;;;-5.06;100.00;99026.19;5058219;28;20123;-61
2023/02/14 06:27:32;;;;;;;29.05;14.07;;;;;;;-5.18;100.00;99030.56;5063390;28;20157;-60
2023/02/14 06:29:58;;;;;;;25.65;14.13;;;;;;;-5.15;100.00;99034.78;5053527;28;20048;-60
2023/02/14 06:32:25;;;;;;;31.08;15.98;;;;;;;-5.14;100.00;99042.59;5058348;28;20072;-62
2023/02/14 06:34:51;;;;;;;31.73;14.73;;;;;;;-4.67;100.00;99047.19;5059004;28;20040;-63
2023/02/14 06:37:18;;;;;;;29.35;15.57;;;;;;;-4.55;100.00;99050.72;5061050;28;20087;-62
2023/02/14 06:39:45;;;;;;;26.40;12.90;;;;;;;-4.38;100.00;99048.63;5056002;28;20068;-63
2023/02/14 06:42:11;;;;;;;31.65;16.83;;;;;;;-4.87;100.00;99056.59;5056979;28;20490;-60
2023/02/14 06:44:38;;;;;;;26.20;13.20;;;;;;;-5.14;100.00;99054.94;5057916;28;20058;-63
2023/02/14 06:47:04;;;;;;;28.48;13.23;;;;;;;-5.20;100.00;99056.22;5066332;28;20044;-62
2023/02/14 06:49:31;;;;;;;24.58;13.70;;;;;;;-5.20;100.00;99050.94;5058141;28;20102;-62
2023/02/14 06:51:57;;;;;;;32.20;14.70;;;;;;;-5.03;100.00;99056.81;5062560;28;20448;-62
2023/02/14 06:54:24;;;;;;;32.85;13.35;;;;;;;-4.95;100.00;99051.84;5062382;28;20046;-62
2023/02/14 06:56:50;;;;;;;27.42;13.30;;;;;;;-4.96;100.00;99047.50;5063727;28;20094;-63
2023/02/14 06:59:17;;;;;;;32.78;13.73;;;;;;;-5.01;100.00;99045.19;5060584;28;20409;-62
2023/02/14 07:01:43;;;;;;;26.42;14.30;;;;;;;-5.00;100.00;99041.63;5055913;28;20040;-62
2023/02/14 07:04:10;;;;;;;29.23;14.00;;;;;;;-4.97;100.00;99040.53;5057553;28;20041;-60
2023/02/14 07:06:36;;;;;;;29.55;15.20;;;;;;;-4.88;100.00;99039.88;5057670;28;20114;-60
2023/02/14 07:09:03;;;;;;;31.73;13.57;;;;;;;-4.93;100.00;99047.28;5052357;28;20052;-59
2023/02/14 07:11:31;;;;;;;24.33;13.48;;;;;;;-4.92;100.00;99048.13;5059569;28;20078;-60
2023/02/14 07:13:57;;;;;;;32.10;15.10;;;;;;;-4.92;100.00;99038.41;5056988;28;20530;-59
2023/02/14 07:16:24;;;;;;;33.78;15.05;;;;;;;-4.84;100.00;99046.63;5058453;28;20044;-60
2023/02/14 07:18:51;;;;;;;37.05;16.70;;;;;;;-4.85;100.00;99037.00;5055791;28;20127;-57
2023/02/14 07:21:17;;;;;;;32.65;16.48;;;;;;;-4.81;100.00;99034.97;5062623;28;20082;-60
2023/02/14 07:23:46;;;;;;;30.02;15.05;;;;;;;-4.77;100.00;99040.88;5057553;28;20466;-59
2023/02/14 07:26:16;;;;;;;29.48;16.05;;;;;;;-4.63;100.00;99031.94;5062463;28;20080;-58
2023/02/14 07:28:44;;;;;;;30.83;13.75;;;;;;;-4.46;100.00;99022.75;5052710;28;20049;-60
2023/02/14 07:31:11;;;;;;;33.03;15.80;;;;;;;-4.26;100.00;99023.06;5054499;28;20094;-59
2023/02/14 07:33:38;;;;;;;35.28;16.95;;;;;;;-4.09;100.00;99022.63;5054227;28;20045;-58
2023/02/14 07:36:06;;;;;;;35.22;16.00;;;;;;;-4.12;100.00;99022.88;5049433;28;20084;-58
2023/02/14 07:38:33;;;;;;;37.67;17.98;;;;;;;-4.12;100.00;99025.50;5062646;28;20044;-59
2023/02/14 07:41:00;;;;;;;35.40;16.40;;;;;;;-4.03;100.00;99025.78;5055941;28;20380;-59
2023/02/14 07:43:27;;;;;;;39.13;16.83;;;;;;;-3.95;100.00;99029.50;5056520;28;20066;-60
2023/02/14 07:45:54;;;;;;;35.90;16.90;;;;;;;-3.85;100.00;99026.13;5064332;28;20044;-61
2023/02/14 07:48:20;;;;;;;36.95;16.85;;;;;;;-3.73;100.00;99029.66;5059829;28;20048;-61
2023/02/14 07:50:47;;;;;;;36.30;16.38;;;;;;;-3.65;100.00;99027.22;5050891;28;20041;-59
2023/02/14 07:53:14;;;;;;;30.48;15.50;;;;;;;-3.59;100.00;99020.63;5059218;28;20041;-61
2023/02/14 07:55:40;;;;;;;46.28;18.45;;;;;;;-3.28;100.00;99018.22;5057881;28;21442;-60
2023/02/14 07:58:06;;;;;;;40.15;17.40;;;;;;;-3.17;100.00;99017.38;5062612;28;20484;-59
2023/02/14 08:00:33;;;;;;;33.40;15.65;;;;;;;-3.12;100.00;99025.78;5058174;28;20080;-59
2023/02/14 08:03:00;;;;;;;36.33;18.02;;;;;;;-3.17;100.00;99026.13;5063178;28;20049;-53
2023/02/14 08:05:26;;;;;;;33.60;17.60;;;;;;;-3.09;100.00;99030.84;5057550;28;20037;-52
2023/02/14 08:07:53;;;;;;;38.83;18.70;;;;;;;-2.97;100.00;99036.09;5055822;28;20926;-53
2023/02/14 08:10:19;;;;;;;40.03;20.05;;;;;;;-2.93;100.00;99027.78;5053771;28;20123;-52
2023/02/14 08:12:58;;;;;;;43.58;20.13;;;;;;;-2.76;100.00;99018.44;5058219;28;20450;-53
2023/02/14 08:18:10;;;;;;;36.85;20.90;;;;;;;-2.45;100.00;99009.78;5054748;28;20051;-54
2023/02/14 08:20:37;;;;;;;52.30;24.15;;;;;;;-2.40;100.00;99009.41;5056772;28;20047;-54
2023/02/14 08:23:03;;;;;;;43.38;21.67;;;;;;;-2.32;100.00;99017.53;5058629;28;20045;-50
2023/02/14 08:25:30;;;;;;;46.90;23.05;;;;;;;-2.25;100.00;99010.75;5054567;28;20134;-50
2023/02/14 08:27:57;;;;;;;46.10;23.70;;;;;;;-2.06;100.00;99006.56;5061883;28;20036;-52
2023/02/14 08:30:23;;;;;;;49.50;23.38;;;;;;;-1.74;100.00;99013.59;5054210;28;20114;-54
2023/02/14 08:32:50;;;;;;;45.00;22.02;;;;;;;-1.63;100.00;99022.44;5053738;28;20124;-51
2023/02/14 08:35:16;;;;;;;40.72;20.40;;;;;;;-1.56;100.00;99010.31;5055800;28;20510;-54
2023/02/14 08:37:43;;;;;;;39.13;19.70;;;;;;;-1.36;100.00;99013.06;5068089;28;20131;-54
2023/02/14 08:40:09;;;;;;;41.50;19.25;;;;;;;-1.18;100.00;99010.59;5050039;28;20664;-53
2023/02/14 08:42:36;;;;;;;43.95;20.38;;;;;;;-0.97;100.00;99004.34;5053544;28;20037;-49
2023/02/14 08:45:03;;;;;;;39.53;21.05;;;;;;;-0.83;100.00;99008.41;5060456;28;20469;-50
2023/02/14 08:47:37;;;;;;;34.20;18.23;;;;;;;-0.72;100.00;98996.81;5058019;28;20086;-55
2023/02/14 08:50:05;;;;;;;34.70;18.48;;;;;;;-0.54;100.00;99010.28;5056803;28;20045;-56
2023/02/14 08:52:32;;;;;;;37.70;17.38;;;;;;;-0.40;100.00;99003.69;5051885;28;20518;-57
2023/02/14 08:54:58;;;;;;;35.65;19.17;;;;;;;-0.25;100.00;99008.56;5054979;28;20953;-58
2023/02/14 08:57:26;;;;;;;30.35;17.65;;;;;;;-0.07;100.00;99003.38;5051954;28;20045;-57
2023/02/14 08:59:53;;;;;;;31.45;18.58;;;;;;;0.12;100.00;99007.81;5056137;28;20554;-57
2023/02/14 09:02:19;;;;;;;35.53;16.55;;;;;;;0.24;100.00;99008.47;5050838;28;20044;-59
2023/02/14 09:04:46;;;;;;;31.65;16.25;;;;;;;0.34;100.00;99001.28;5053000;28;20524;-59
2023/02/14 09:07:12;;;;;;;30.75;16.05;;;;;;;0.44;100.00;99003.91;5045642;28;20124;-59
2023/02/14 09:09:39;;;;;;;32.47;16.92;;;;;;;0.54;100.00;98998.56;5054569;28;20106;-58
2023/02/14 09:12:08;;;;;;;28.85;15.05;;;;;;;0.64;100.00;99001.19;5055410;28;20041;-58
2023/02/14 09:14:36;;;;;;;29.92;17.25;;;;;;;0.74;100.00;99001.97;5054078;28;20068;-57
2023/02/14 09:17:04;;;;;;;29.02;15.32;;;;;;;0.85;100.00;99003.59;5050910;28;20056;-58
2023/02/14 09:19:32;;;;;;;30.15;16.00;;;;;;;0.95;100.00;99000.06;5053043;28;20115;-57
2023/02/14 09:21:59;;;;;;;33.13;16.48;;;;;;;1.03;100.00;98997.44;5052395;28;20048;-58
2023/02/14 09:24:26;;;;;;;34.78;16.55;;;;;;;1.11;100.00;98994.88;5054998;28;20052;-59
2023/02/14 09:26:53;;;;;;;31.83;16.08;;;;;;;1.16;100.00;98997.09;5055219;28;20292;-59
2023/02/14 09:29:19;;;;;;;33.13;16.65;;;;;;;1.23;100.00;98997.34;5057844;28;20525;-60
2023/02/14 09:31:46;;;;;;;29.48;15.55;;;;;;;1.34;100.00;98990.94;5055565;28;20124;-59
2023/02/14 09:34:13;;;;;;;30.85;14.18;;;;;;;1.39;100.00;98997.50;5057275;28;20045;-58
2023/02/14 09:39:24;;;;;;;32.47;16.70;;;;;;;1.52;100.00;98990.94;5054152;28;20112;-57
2023/02/14 09:42:05;;;;;;;31.73;16.40;;;;;;;1.52;100.00;98986.41;5050476;28;20032;-57
2023/02/14 09:44:44;;;;;;;37.90;17.63;;;;;;;1.67;100.00;98978.72;5054813;28;20481;-59
2023/02/14 09:47:32;;;;;;;34.33;17.30;;;;;;;1.75;100.00;98985.97;5056702;28;20102;-58
2023/02/14 09:50:01;;;;;;;30.02;17.42;;;;;;;1.84;100.00;98980.69;5060558;28;20535;-58
2023/02/14 09:52:30;;;;;;;32.78;17.08;;;;;;;1.88;100.00;98979.38;5060843;28;20033;-59
2023/02/14 09:55:00;;;;;;;30.58;17.50;;;;;;;1.97;100.00;98972.25;5055716;28;20124;-57
2023/02/14 09:57:32;;;;;;;31.27;15.80;;;;;;;2.03;100.00;98968.97;5053100;28;20049;-57
2023/02/14 10:00:15;;;;;;;30.00;14.93;;;;;;;2.16;100.00;98973.88;5061375;28;20602;-57
2023/02/14 10:03:20;;;;;;;28.10;16.30;;;;;;;2.27;100.00;98978.09;5053480;28;20123;-58
2023/02/14 10:06:33;;;;;;;31.10;15.27;;;;;;;2.37;100.00;98969.97;5057360;28;20063;-55
2023/02/14 10:09:23;;;;;;;29.42;15.48;;;;;;;2.49;100.00;98966.03;5043849;28;20689;-59
2023/02/14 10:11:51;;;;;;;31.10;15.52;;;;;;;2.61;100.00;98971.94;5051406;28;20040;-59
2023/02/14 10:14:21;;;;;;;26.30;14.40;;;;;;;2.65;99.55;98962.59;5051258;28;20407;-60
2023/02/14 10:16:59;;;;;;;25.20;14.98;;;;;;;2.76;99.20;98965.97;5054575;28;20068;-59
2023/02/14 10:19:59;;;;;;;28.48;15.23;;;;;;;2.86;98.74;98955.97;5056663;28;20044;-58
2023/02/14 10:22:42;;;;;;;30.10;15.18;;;;;;;2.94;98.45;98961.34;5039979;28;20132;-59
2023/02/14 10:25:24;;;;;;;28.52;15.07;;;;;;;3.03;98.31;98950.66;5053548;28;20105;-59
2023/02/14 10:27:55;;;;;;;27.25;13.75;;;;;;;3.09;97.67;98958.88;5052266;28;20700;-59
2023/02/14 10:30:23;;;;;;;27.50;16.15;;;;;;;3.18;97.29;98953.53;5058000;28;20110;-62
2023/02/14 10:33:11;;;;;;;28.83;15.05;;;;;;;3.29;96.95;98944.34;5052986;28;20039;-59
2023/02/14 10:35:47;;;;;;;31.27;13.43;;;;;;;3.34;96.25;98950.03;5053572;28;20144;-58
2023/02/14 10:38:41;;;;;;;28.27;15.30;;;;;;;3.46;96.54;98947.88;5059912;28;20566;-58
2023/02/14 10:41:26;;;;;;;27.55;15.25;;;;;;;3.55;95.93;98940.69;5054184;28;20074;-56
2023/02/14 10:44:07;;;;;;;23.95;14.20;;;;;;;3.66;95.69;98939.50;5057292;28;20106;-58
2023/02/14 10:47:08;;;;;;;26.58;15.15;;;;;;;3.71;95.06;98942.50;5060030;28;20056;-57
2023/02/14 10:50:05;;;;;;;23.48;14.23;;;;;;;3.86;94.25;98940.81;5055530;28;20486;-59
2023/02/14 10:53:17;;;;;;;26.10;13.88;;;;;;;3.95;94.19;98932.78;5060571;28;20048;-56
2023/02/14 10:55:55;;;;;;;26.20;15.77;;;;;;;4.02;93.85;98928.41;5049455;28;20488;-58
2023/02/14 10:58:25;;;;;;;42.05;19.52;;;;;;;4.11;93.03;98927.38;5057280;28;20045;-58
2023/02/14 11:00:59;;;;;;;29.25;16.38;;;;;;;4.20;92.65;98928.19;5057216;28;20064;-58
2023/02/14 11:03:27;;;;;;;26.30;15.05;;;;;;;4.16;92.27;98934.91;5058007;28;20101;-59
2023/02/14 11:05:54;;;;;;;26.58;15.07;;;;;;;4.18;92.41;98922.16;5058019;28;20049;-58
2023/02/14 11:08:25;;;;;;;25.25;15.68;;;;;;;4.23;92.57;98925.16;5052990;28;20048;-58
2023/02/14 11:11:06;;;;;;;25.98;14.85;;;;;;;4.28;91.98;98917.44;5055651;28;20052;-58
2023/02/14 11:13:35;;;;;;;25.70;14.45;;;;;;;4.34;91.77;98915.91;5054358;28;20555;-58
2023/02/14 11:16:05;;;;;;;25.70;14.35;;;;;;;4.42;91.91;98921.25;5047727;28;20037;-57
2023/02/14 11:18:34;;;;;;;30.80;15.63;;;;;;;4.50;90.76;98909.63;5050887;28;20067;-56
2023/02/14 11:21:13;;;;;;;23.08;13.93;;;;;;;4.53;91.46;98905.75;5056789;28;20407;-58
2023/02/14 11:23:42;;;;;;;29.55;14.40;;;;;;;4.74;90.68;98907.00;5055866;28;20582;-57
2023/02/14 11:26:24;;;;;;;24.17;14.57;;;;;;;4.75;89.35;98906.84;5058609;28;20052;-57
2023/02/14 11:28:57;;;;;;;;;;;;;;;4.72;89.48;98901.00;5060626;28;20046;-59
2023/02/14 11:31:29;;;;;;;28.10;15.23;;;;;;;4.75;89.46;98898.78;5056091;28;20596;-58
2023/02/14 11:33:57;;;;;;;26.02;15.73;;;;;;;4.80;89.02;98903.63;5051964;28;20036;-59
2023/02/14 11:36:25;;;;;;;25.30;14.75;;;;;;;4.80;88.45;98896.41;5056584;28;20613;-59
2023/02/14 11:39:21;;;;;;;27.80;14.80;;;;;;;4.94;88.64;98894.00;5062855;28;20043;-60
2023/02/14 11:41:50;;;;;;;26.17;15.27;;;;;;;4.97;88.08;98882.88;5061481;28;20048;-59
2023/02/14 11:44:23;;;;;;;28.45;16.50;;;;;;;4.97;88.65;98882.88;5051013;28;20978;-60
2023/02/14 11:46:51;;;;;;;29.25;15.95;;;;;;;5.03;88.32;98884.88;5051100;28;20101;-59
2023/02/14 11:49:32;;;;;;;27.00;14.68;;;;;;;5.12;87.09;98890.19;5057611;28;20567;-58
2023/02/14 11:52:08;;;;;;;26.00;15.55;;;;;;;5.16;87.70;98878.88;5058879;28;20036;-60